sensor_id;sensor_type;location;lat;lon;timestamp;pressure;altitude;pressure_sealevel;temperature;humidity
41712;BME280;27399;51.516;13.670;2023-05-19T11:38:01;101365.94;;;17.58;62.82
41712;BME280;27399;51.516;13.670;2023-05-19T11:40:28;101363.13;;;18.03;61.66
41712;BME280;27399;51.516;13.670;2023-05-19T11:42:54;101363.47;;;18.60;61.23
41712;BME280;27399;51.516;13.670;2023-05-19T11:45:27;101359.75;;;18.99;59.49
41712;BME280;27399;51.516;13.670;2023-05-19T11:47:54;101357.06;;;19.29;60.15
41712;BME280;27399;51.516;13.670;2023-05-19T11:50:21;101365.19;;;19.27;57.54
41712;BME280;27399;51.516;13.670;2023-05-19T11:52:47;101363.19;;;19.64;58.51
41712;BME280;27399;51.516;13.670;2023-05-19T11:55:17;101366.94;;;19.60;57.90
41712;BME280;27399;51.516;13.670;2023-05-19T11:58:02;101358.97;;;19.84;58.00
41712;BME280;27399;51.516;13.670;2023-05-19T12:00:30;101366.41;;;20.05;56.42
41712;BME280;27399;51.516;13.670;2023-05-19T12:03:01;101374.41;;;20.10;57.77
41712;BME280;27399;51.516;13.670;2023-05-19T12:05:27;101356.25;;;20.12;57.47
41712;BME280;27399;51.516;13.670;2023-05-19T12:07:53;101366.91;;;20.18;57.65
41712;BME280;27399;51.516;13.670;2023-05-19T12:10:23;101370.88;;;20.06;57.61
41712;BME280;27399;51.516;13.670;2023-05-19T12:12:50;101360.66;;;20.16;58.39
41712;BME280;27399;51.516;13.670;2023-05-19T12:15:19;101363.69;;;19.77;56.21
41712;BME280;27399;51.516;13.670;2023-05-19T12:18:04;101356.69;;;20.00;57.46
41712;BME280;27399;51.516;13.670;2023-05-19T12:20:30;101349.97;;;20.11;56.62
41712;BME280;27399;51.516;13.670;2023-05-19T12:22:57;101355.44;;;20.10;56.38
41712;BME280;27399;51.516;13.670;2023-05-19T12:25:23;101356.22;;;20.13;56.37
41712;BME280;27399;51.516;13.670;2023-05-19T12:27:49;101356.16;;;20.15;57.44
41712;BME280;27399;51.516;13.670;2023-05-19T12:30:17;101364.31;;;19.87;57.18
41712;BME280;27399;51.516;13.670;2023-05-19T12:32:44;101360.97;;;20.07;57.44
41712;BME280;27399;51.516;13.670;2023-05-19T12:35:10;101356.03;;;19.91;56.98
41712;BME280;27399;51.516;13.670;2023-05-19T12:37:40;101349.34;;;20.03;57.39
41712;BME280;27399;51.516;13.670;2023-05-19T12:40:06;101348.59;;;19.98;57.33
41712;BME280;27399;51.516;13.670;2023-05-19T12:42:32;101350.53;;;19.94;57.47
41712;BME280;27399;51.516;13.670;2023-05-19T12:45:01;101350.81;;;20.13;56.95
41712;BME280;27399;51.516;13.670;2023-05-19T12:47:32;101350.28;;;20.02;56.06
41712;BME280;27399;51.516;13.670;2023-05-19T12:52:26;101343.81;;;20.06;56.66
41712;BME280;27399;51.516;13.670;2023-05-19T12:55:09;101358.09;;;20.11;55.45
41712;BME280;27399;51.516;13.670;2023-05-19T12:57:40;101354.84;;;20.00;55.04
41712;BME280;27399;51.516;13.670;2023-05-19T13:00:07;101363.03;;;19.69;55.52
41712;BME280;27399;51.516;13.670;2023-05-19T13:03:17;101359.94;;;19.81;55.61
41712;BME280;27399;51.516;13.670;2023-05-19T13:05:46;101363.66;;;20.07;57.03
41712;BME280;27399;51.516;13.670;2023-05-19T13:08:15;101350.50;;;20.23;56.30
41712;BME280;27399;51.516;13.670;2023-05-19T13:10:43;101359.88;;;20.12;56.92
41712;BME280;27399;51.516;13.670;2023-05-19T13:13:10;101343.63;;;20.12;55.50
41712;BME280;27399;51.516;13.670;2023-05-19T13:15:41;101348.13;;;20.12;55.69
41712;BME280;27399;51.516;13.670;2023-05-19T13:18:09;101352.78;;;20.08;56.85
41712;BME280;27399;51.516;13.670;2023-05-19T13:20:36;101352.44;;;20.19;56.72
41712;BME280;27399;51.516;13.670;2023-05-19T13:23:02;101352.53;;;19.89;55.50
41712;BME280;27399;51.516;13.670;2023-05-19T13:25:29;101351.53;;;20.19;56.93
41712;BME280;27399;51.516;13.670;2023-05-19T13:27:55;101338.84;;;19.94;56.33
41712;BME280;27399;51.516;13.670;2023-05-19T13:30:23;101339.91;;;20.15;56.36
41712;BME280;27399;51.516;13.670;2023-05-19T13:32:48;101342.31;;;19.97;55.95
41712;BME280;27399;51.516;13.670;2023-05-19T13:35:14;101337.88;;;20.22;56.54
41712;BME280;27399;51.516;13.670;2023-05-19T13:37:41;101326.31;;;20.43;56.26
41712;BME280;27399;51.516;13.670;2023-05-19T13:40:07;101334.69;;;20.36;56.12
41712;BME280;27399;51.516;13.670;2023-05-19T13:42:33;101331.66;;;20.45;57.17
41712;BME280;27399;51.516;13.670;2023-05-19T13:45:00;101329.75;;;20.22;55.57
41712;BME280;27399;51.516;13.670;2023-05-19T13:47:29;101327.16;;;20.44;55.67
41712;BME280;27399;51.516;13.670;2023-05-19T13:49:54;101334.00;;;20.29;56.22
41712;BME280;27399;51.516;13.670;2023-05-19T13:52:21;101322.22;;;20.32;57.13
41712;BME280;27399;51.516;13.670;2023-05-19T13:54:47;101322.72;;;20.16;57.37
41712;BME280;27399;51.516;13.670;2023-05-19T13:57:14;101331.06;;;20.37;56.08
41712;BME280;27399;51.516;13.670;2023-05-19T13:59:39;101336.38;;;20.40;57.12
41712;BME280;27399;51.516;13.670;2023-05-19T14:02:07;101328.63;;;20.54;56.10
41712;BME280;27399;51.516;13.670;2023-05-19T14:04:36;101330.28;;;20.33;57.06
41712;BME280;27399;51.516;13.670;2023-05-19T14:07:03;101326.97;;;20.25;56.93
41712;BME280;27399;51.516;13.670;2023-05-19T14:09:29;101333.16;;;20.54;55.98
41712;BME280;27399;51.516;13.670;2023-05-19T14:11:55;101327.47;;;20.62;56.48
41712;BME280;27399;51.516;13.670;2023-05-19T14:14:21;101325.38;;;20.70;56.22
41712;BME280;27399;51.516;13.670;2023-05-19T14:16:47;101324.75;;;20.62;55.78
41712;BME280;27399;51.516;13.670;2023-05-19T14:19:13;101321.66;;;20.72;56.98
41712;BME280;27399;51.516;13.670;2023-05-19T14:21:38;101306.50;;;20.41;56.59
41712;BME280;27399;51.516;13.670;2023-05-19T14:24:04;101317.06;;;20.49;56.41
41712;BME280;27399;51.516;13.670;2023-05-19T14:26:30;101325.09;;;20.52;56.31
41712;BME280;27399;51.516;13.670;2023-05-19T14:28:56;101320.13;;;20.40;56.74
41712;BME280;27399;51.516;13.670;2023-05-19T14:31:22;101323.31;;;20.26;57.41
41712;BME280;27399;51.516;13.670;2023-05-19T14:33:48;101329.41;;;20.06;57.45
41712;BME280;27399;51.516;13.670;2023-05-19T14:36:13;101331.38;;;20.27;56.81
41712;BME280;27399;51.516;13.670;2023-05-19T14:38:39;101336.06;;;19.95;57.36
41712;BME280;27399;51.516;13.670;2023-05-19T14:41:05;101332.50;;;19.93;57.98
41712;BME280;27399;51.516;13.670;2023-05-19T14:43:31;101345.25;;;20.18;57.99
41712;BME280;27399;51.516;13.670;2023-05-19T14:45:57;101333.19;;;20.27;58.28
41712;BME280;27399;51.516;13.670;2023-05-19T14:48:23;101345.38;;;19.85;57.56
41712;BME280;27399;51.516;13.670;2023-05-19T14:50:48;101337.44;;;20.09;57.67
41712;BME280;27399;51.516;13.670;2023-05-19T14:53:14;101333.91;;;20.32;57.07
41712;BME280;27399;51.516;13.670;2023-05-19T14:55:41;101326.69;;;20.06;57.17
41712;BME280;27399;51.516;13.670;2023-05-19T14:58:06;101330.94;;;20.13;57.77
41712;BME280;27399;51.516;13.670;2023-05-19T15:00:32;101322.72;;;20.16;57.53
41712;BME280;27399;51.516;13.670;2023-05-19T15:02:57;101332.53;;;20.20;57.92
41712;BME280;27399;51.516;13.670;2023-05-19T15:05:23;101328.25;;;20.13;57.19
41712;BME280;27399;51.516;13.670;2023-05-19T15:07:49;101333.09;;;20.03;58.03
41712;BME280;27399;51.516;13.670;2023-05-19T15:10:16;101338.00;;;19.92;57.86
41712;BME280;27399;51.516;13.670;2023-05-19T15:12:45;101343.44;;;19.90;58.69
41712;BME280;27399;51.516;13.670;2023-05-19T15:15:11;101337.59;;;20.04;58.58
41712;BME280;27399;51.516;13.670;2023-05-19T15:17:37;101333.28;;;19.97;58.39
41712;BME280;27399;51.516;13.670;2023-05-19T15:20:03;101333.28;;;19.97;57.46
41712;BME280;27399;51.516;13.670;2023-05-19T15:22:28;101328.41;;;20.08;57.74
41712;BME280;27399;51.516;13.670;2023-05-19T15:24:54;101337.91;;;19.65;58.35
41712;BME280;27399;51.516;13.670;2023-05-19T15:27:19;101338.81;;;19.65;58.71
41712;BME280;27399;51.516;13.670;2023-05-19T15:29:45;101330.28;;;19.78;58.44
41712;BME280;27399;51.516;13.670;2023-05-19T15:32:11;101335.47;;;19.86;58.62
41712;BME280;27399;51.516;13.670;2023-05-19T15:34:37;101330.31;;;19.76;59.17
41712;BME280;27399;51.516;13.670;2023-05-19T15:37:02;101330.97;;;19.86;57.92
41712;BME280;27399;51.516;13.670;2023-05-19T15:39:31;101331.19;;;20.05;57.61
41712;BME280;27399;51.516;13.670;2023-05-19T15:41:58;101330.56;;;19.99;57.42
41712;BME280;27399;51.516;13.670;2023-05-19T15:44:24;101328.22;;;20.15;58.33
41712;BME280;27399;51.516;13.670;2023-05-19T15:46:49;101328.88;;;19.94;58.81
41712;BME280;27399;51.516;13.670;2023-05-19T15:49:15;101302.03;;;19.88;57.44
41712;BME280;27399;51.516;13.670;2023-05-19T15:51:42;101321.66;;;19.65;59.61
41712;BME280;27399;51.516;13.670;2023-05-19T15:54:08;101332.50;;;19.65;58.81
41712;BME280;27399;51.516;13.670;2023-05-19T15:56:34;101326.53;;;19.54;58.94
41712;BME280;27399;51.516;13.670;2023-05-19T15:59:00;101331.13;;;19.51;59.96
41712;BME280;27399;51.516;13.670;2023-05-19T16:01:25;101322.66;;;19.62;58.87
41712;BME280;27399;51.516;13.670;2023-05-19T16:03:51;101326.28;;;19.63;58.62
41712;BME280;27399;51.516;13.670;2023-05-19T16:06:17;101334.75;;;19.79;58.81
41712;BME280;27399;51.516;13.670;2023-05-19T16:08:42;101334.88;;;19.76;59.29
41712;BME280;27399;51.516;13.670;2023-05-19T16:11:08;101335.25;;;19.63;59.27
41712;BME280;27399;51.516;13.670;2023-05-19T16:13:33;101338.50;;;19.75;58.50
41712;BME280;27399;51.516;13.670;2023-05-19T16:15:59;101337.22;;;19.28;58.72
41712;BME280;27399;51.516;13.670;2023-05-19T16:18:25;101328.28;;;19.26;59.25
41712;BME280;27399;51.516;13.670;2023-05-19T16:20:51;101333.16;;;19.13;59.70
41712;BME280;27399;51.516;13.670;2023-05-19T16:23:17;101322.69;;;19.02;60.26
41712;BME280;27399;51.516;13.670;2023-05-19T16:25:43;101320.91;;;19.31;59.45
41712;BME280;27399;51.516;13.670;2023-05-19T16:28:08;101318.41;;;19.25;60.42
41712;BME280;27399;51.516;13.670;2023-05-19T16:30:34;101318.66;;;19.16;60.07
41712;BME280;27399;51.516;13.670;2023-05-19T16:33:00;101315.56;;;19.30;60.08
41712;BME280;27399;51.516;13.670;2023-05-19T16:35:26;101321.13;;;19.25;60.43
41712;BME280;27399;51.516;13.670;2023-05-19T16:37:53;101325.56;;;18.96;61.85
41712;BME280;27399;51.516;13.670;2023-05-19T16:40:19;101328.47;;;19.20;60.76
41712;BME280;27399;51.516;13.670;2023-05-19T16:42:45;101321.75;;;19.03;61.23
41712;BME280;27399;51.516;13.670;2023-05-19T16:45:10;101319.50;;;19.19;60.78
41712;BME280;27399;51.516;13.670;2023-05-19T16:47:36;101319.44;;;19.21;62.06
41712;BME280;27399;51.516;13.670;2023-05-19T16:50:02;101324.34;;;19.07;61.03
41712;BME280;27399;51.516;13.670;2023-05-19T16:52:28;101324.28;;;19.10;61.51
41712;BME280;27399;51.516;13.670;2023-05-19T16:54:53;101335.09;;;19.10;61.67
41712;BME280;27399;51.516;13.670;2023-05-19T16:57:19;101335.38;;;19.00;60.72
41712;BME280;27399;51.516;13.670;2023-05-19T16:59:45;101330.59;;;19.09;60.98
41712;BME280;27399;51.516;13.670;2023-05-19T17:02:11;101329.69;;;19.10;61.42
41712;BME280;27399;51.516;13.670;2023-05-19T17:04:36;101330.69;;;19.05;61.06
41712;BME280;27399;51.516;13.670;2023-05-19T17:07:02;101331.81;;;18.98;60.53
41712;BME280;27399;51.516;13.670;2023-05-19T17:09:28;101323.56;;;19.03;61.50
41712;BME280;27399;51.516;13.670;2023-05-19T17:11:54;101318.59;;;18.87;61.56
41712;BME280;27399;51.516;13.670;2023-05-19T17:14:20;101329.09;;;18.98;62.14
41712;BME280;27399;51.516;13.670;2023-05-19T17:16:46;101336.22;;;19.01;61.34
41712;BME280;27399;51.516;13.670;2023-05-19T17:19:12;101333.91;;;18.87;62.48
41712;BME280;27399;51.516;13.670;2023-05-19T17:21:38;101341.13;;;18.86;61.92
41712;BME280;27399;51.516;13.670;2023-05-19T17:24:04;101341.28;;;18.80;62.24
41712;BME280;27399;51.516;13.670;2023-05-19T17:26:31;101336.88;;;18.78;62.10
41712;BME280;27399;51.516;13.670;2023-05-19T17:28:57;101339.56;;;18.78;61.35
41712;BME280;27399;51.516;13.670;2023-05-19T17:31:23;101338.94;;;18.68;61.72
41712;BME280;27399;51.516;13.670;2023-05-19T17:33:48;101331.97;;;18.92;62.39
41712;BME280;27399;51.516;13.670;2023-05-19T17:36:14;101336.03;;;18.76;63.37
41712;BME280;27399;51.516;13.670;2023-05-19T17:38:39;101343.28;;;18.73;62.81
41712;BME280;27399;51.516;13.670;2023-05-19T17:41:06;101340.38;;;18.81;62.40
41712;BME280;27399;51.516;13.670;2023-05-19T17:43:40;101349.44;;;18.46;62.81
41712;BME280;27399;51.516;13.670;2023-05-19T17:46:06;101344.25;;;18.71;62.57
41712;BME280;27399;51.516;13.670;2023-05-19T17:48:33;101339.66;;;18.74;62.70
41712;BME280;27399;51.516;13.670;2023-05-19T17:50:59;101339.38;;;19.17;61.71
41712;BME280;27399;51.516;13.670;2023-05-19T17:53:25;101351.97;;;19.76;60.45
41712;BME280;27399;51.516;13.670;2023-05-19T17:56:01;101343.63;;;20.12;59.27
41712;BME280;27399;51.516;13.670;2023-05-19T17:58:27;101347.53;;;20.56;59.00
41712;BME280;27399;51.516;13.670;2023-05-19T18:00:54;101346.81;;;20.78;57.78
41712;BME280;27399;51.516;13.670;2023-05-19T18:03:23;101353.88;;;20.82;58.34
41712;BME280;27399;51.516;13.670;2023-05-19T18:05:49;101346.66;;;20.81;57.83
41712;BME280;27399;51.516;13.670;2023-05-19T18:08:15;101346.19;;;20.95;57.27
41712;BME280;27399;51.516;13.670;2023-05-19T18:10:42;101343.41;;;20.96;58.30
41712;BME280;27399;51.516;13.670;2023-05-19T18:13:09;101350.59;;;20.72;58.55
41712;BME280;27399;51.516;13.670;2023-05-19T18:15:35;101355.34;;;20.65;58.58
41712;BME280;27399;51.516;13.670;2023-05-19T18:18:02;101346.34;;;20.11;59.00
41712;BME280;27399;51.516;13.670;2023-05-19T18:20:30;101353.84;;;20.03;60.04
41712;BME280;27399;51.516;13.670;2023-05-19T18:22:57;101344.44;;;19.88;60.18
41712;BME280;27399;51.516;13.670;2023-05-19T18:25:23;101339.28;;;19.50;60.95
41712;BME280;27399;51.516;13.670;2023-05-19T18:27:49;101344.09;;;19.69;60.74
41712;BME280;27399;51.516;13.670;2023-05-19T18:30:15;101346.94;;;19.64;60.77
41712;BME280;27399;51.516;13.670;2023-05-19T18:32:41;101337.66;;;19.44;61.32
41712;BME280;27399;51.516;13.670;2023-05-19T18:35:07;101337.66;;;19.44;61.73
41712;BME280;27399;51.516;13.670;2023-05-19T18:37:33;101345.34;;;19.28;61.86
41712;BME280;27399;51.516;13.670;2023-05-19T18:39:59;101338.16;;;19.27;61.55
41712;BME280;27399;51.516;13.670;2023-05-19T18:42:25;101347.16;;;18.98;62.00
41712;BME280;27399;51.516;13.670;2023-05-19T18:44:51;101354.94;;;19.09;62.38
41712;BME280;27399;51.516;13.670;2023-05-19T18:47:16;101348.22;;;18.90;62.26
41712;BME280;27399;51.516;13.670;2023-05-19T18:49:47;101343.72;;;18.91;63.03
41712;BME280;27399;51.516;13.670;2023-05-19T18:52:13;101345.47;;;18.92;62.77
41712;BME280;27399;51.516;13.670;2023-05-19T18:54:39;101349.28;;;18.85;63.28
41712;BME280;27399;51.516;13.670;2023-05-19T18:57:07;101344.59;;;18.58;63.32
41712;BME280;27399;51.516;13.670;2023-05-19T18:59:33;101350.78;;;18.64;63.31
41712;BME280;27399;51.516;13.670;2023-05-19T19:01:59;101347.16;;;18.63;64.19
41712;BME280;27399;51.516;13.670;2023-05-19T19:04:25;101351.16;;;18.48;65.22
41712;BME280;27399;51.516;13.670;2023-05-19T19:06:51;101350.78;;;18.29;65.49
41712;BME280;27399;51.516;13.670;2023-05-19T19:09:17;101352.25;;;18.06;66.91
41712;BME280;27399;51.516;13.670;2023-05-19T19:11:43;101352.28;;;18.41;65.07
41712;BME280;27399;51.516;13.670;2023-05-19T19:14:08;101349.25;;;18.19;64.92
41712;BME280;27399;51.516;13.670;2023-05-19T19:16:35;101356.34;;;18.23;65.01
41712;BME280;27399;51.516;13.670;2023-05-19T19:19:01;101352.31;;;18.03;65.16
41712;BME280;27399;51.516;13.670;2023-05-19T19:21:26;101349.22;;;18.20;65.21
41712;BME280;27399;51.516;13.670;2023-05-19T19:23:54;101355.47;;;18.21;65.04
41712;BME280;27399;51.516;13.670;2023-05-19T19:26:22;101352.25;;;18.06;65.98
41712;BME280;27399;51.516;13.670;2023-05-19T19:28:49;101356.06;;;17.98;65.67
41712;BME280;27399;51.516;13.670;2023-05-19T19:31:15;101360.94;;;16.98;67.26
41712;BME280;27399;51.516;13.670;2023-05-19T19:33:41;101367.13;;;17.46;67.28
41712;BME280;27399;51.516;13.670;2023-05-19T19:36:08;101363.78;;;17.75;66.20
41712;BME280;27399;51.516;13.670;2023-05-19T19:38:34;101367.72;;;17.59;67.23
41712;BME280;27399;51.516;13.670;2023-05-19T19:41:01;101366.47;;;17.75;66.79
41712;BME280;27399;51.516;13.670;2023-05-19T19:43:27;101370.34;;;17.62;66.53
41712;BME280;27399;51.516;13.670;2023-05-19T19:45:59;101360.38;;;17.67;67.41
41712;BME280;27399;51.516;13.670;2023-05-19T19:48:25;101364.00;;;17.66;67.30
41712;BME280;27399;51.516;13.670;2023-05-19T19:50:55;101361.19;;;17.71;66.36
41712;BME280;27399;51.516;13.670;2023-05-19T19:53:21;101360.72;;;17.52;67.79
41712;BME280;27399;51.516;13.670;2023-05-19T19:55:59;101353.03;;;17.72;66.74
41712;BME280;27399;51.516;13.670;2023-05-19T19:58:25;101355.97;;;17.63;66.76
41712;BME280;27399;51.516;13.670;2023-05-19T20:00:55;101346.94;;;17.64;66.64
41712;BME280;27399;51.516;13.670;2023-05-19T20:03:21;101343.44;;;17.60;67.91
41712;BME280;27399;51.516;13.670;2023-05-19T20:05:47;101347.22;;;17.52;67.28
41712;BME280;27399;51.516;13.670;2023-05-19T20:08:13;101359.13;;;17.41;68.09
41712;BME280;27399;51.516;13.670;2023-05-19T20:10:38;101361.94;;;17.37;68.06
41712;BME280;27399;51.516;13.670;2023-05-19T20:13:04;101365.59;;;17.34;68.15
41712;BME280;27399;51.516;13.670;2023-05-19T20:15:30;101364.84;;;17.27;68.23
41712;BME280;27399;51.516;13.670;2023-05-19T20:17:56;101360.31;;;17.29;68.14
41712;BME280;27399;51.516;13.670;2023-05-19T20:20:22;101364.94;;;17.23;68.63
41712;BME280;27399;51.516;13.670;2023-05-19T20:22:47;101375.41;;;17.37;68.36
41712;BME280;27399;51.516;13.670;2023-05-19T20:25:13;101378.31;;;17.26;69.05
41712;BME280;27399;51.516;13.670;2023-05-19T20:27:39;101373.47;;;17.01;70.05
41712;BME280;27399;51.516;13.670;2023-05-19T20:30:05;101378.53;;;17.16;68.91
41712;BME280;27399;51.516;13.670;2023-05-19T20:32:31;101375.91;;;17.12;68.67
41712;BME280;27399;51.516;13.670;2023-05-19T20:34:57;101366.16;;;17.06;69.40
41712;BME280;27399;51.516;13.670;2023-05-19T20:37:22;101367.31;;;16.93;69.81
41712;BME280;27399;51.516;13.670;2023-05-19T20:39:48;101360.41;;;17.25;68.78
41712;BME280;27399;51.516;13.670;2023-05-19T20:42:14;101362.59;;;17.06;69.54
41712;BME280;27399;51.516;13.670;2023-05-19T20:44:40;101358.38;;;16.89;69.71
41712;BME280;27399;51.516;13.670;2023-05-19T20:47:05;101362.03;;;16.86;70.08
41712;BME280;27399;51.516;13.670;2023-05-19T20:49:34;101366.69;;;16.78;70.41
41712;BME280;27399;51.516;13.670;2023-05-19T20:52:00;101364.56;;;16.96;70.16
41712;BME280;27399;51.516;13.670;2023-05-19T20:54:26;101357.28;;;17.01;69.60
41712;BME280;27399;51.516;13.670;2023-05-19T20:56:52;101368.84;;;17.06;70.20
41712;BME280;27399;51.516;13.670;2023-05-19T20:59:17;101370.81;;;16.98;70.63
41712;BME280;27399;51.516;13.670;2023-05-19T21:01:44;101374.38;;;17.00;70.33
41712;BME280;27399;51.516;13.670;2023-05-19T21:04:10;101372.47;;;17.05;70.28
41712;BME280;27399;51.516;13.670;2023-05-19T21:06:36;101379.00;;;16.90;70.27
41712;BME280;27399;51.516;13.670;2023-05-19T21:09:02;101361.28;;;16.78;70.93
41712;BME280;27399;51.516;13.670;2023-05-19T21:11:31;101376.41;;;16.85;71.17
41712;BME280;27399;51.516;13.670;2023-05-19T21:13:56;101373.50;;;16.98;70.85
41712;BME280;27399;51.516;13.670;2023-05-19T21:16:22;101378.25;;;16.83;70.86
41712;BME280;27399;51.516;13.670;2023-05-19T21:18:48;101378.31;;;16.80;71.06
41712;BME280;27399;51.516;13.670;2023-05-19T21:21:13;101377.22;;;16.89;70.91
41712;BME280;27399;51.516;13.670;2023-05-19T21:23:39;101377.72;;;16.63;71.73
41712;BME280;27399;51.516;13.670;2023-05-19T21:26:05;101371.09;;;16.82;71.21
41712;BME280;27399;51.516;13.670;2023-05-19T21:28:31;101374.59;;;16.87;71.17
41712;BME280;27399;51.516;13.670;2023-05-19T21:30:57;101369.38;;;16.78;71.77
41712;BME280;27399;51.516;13.670;2023-05-19T21:33:23;101368.34;;;16.85;71.54
41712;BME280;27399;51.516;13.670;2023-05-19T21:35:49;101365.78;;;16.79;71.41
41712;BME280;27399;51.516;13.670;2023-05-19T21:38:14;101368.56;;;16.75;71.49
41712;BME280;27399;51.516;13.670;2023-05-19T21:40:40;101373.56;;;16.93;70.80
41712;BME280;27399;51.516;13.670;2023-05-19T21:43:06;101376.38;;;16.88;71.10
41712;BME280;27399;51.516;13.670;2023-05-19T21:45:31;101377.50;;;16.75;71.41
41712;BME280;27399;51.516;13.670;2023-05-19T21:47:57;101380.63;;;17.02;70.71
41712;BME280;27399;51.516;13.670;2023-05-19T21:50:23;101381.69;;;16.92;70.98
41712;BME280;27399;51.516;13.670;2023-05-19T21:52:48;101379.91;;;16.91;71.34
41712;BME280;27399;51.516;13.670;2023-05-19T21:55:14;101386.31;;;16.85;71.40
41712;BME280;27399;51.516;13.670;2023-05-19T21:57:40;101378.28;;;16.82;71.69
41712;BME280;27399;51.516;13.670;2023-05-19T22:00:06;101373.63;;;16.92;71.20
41712;BME280;27399;51.516;13.670;2023-05-19T22:02:32;101379.97;;;16.87;71.95
41712;BME280;27399;51.516;13.670;2023-05-19T22:04:58;101367.56;;;16.79;72.70
41712;BME280;27399;51.516;13.670;2023-05-19T22:07:23;101370.94;;;16.92;71.49
41712;BME280;27399;51.516;13.670;2023-05-19T22:09:54;101376.50;;;16.82;71.82
41712;BME280;27399;51.516;13.670;2023-05-19T22:12:19;101372.97;;;16.77;71.77
41712;BME280;27399;51.516;13.670;2023-05-19T22:14:45;101379.50;;;16.64;72.93
41712;BME280;27399;51.516;13.670;2023-05-19T22:17:11;101375.28;;;16.50;73.00
41712;BME280;27399;51.516;13.670;2023-05-19T22:19:37;101382.94;;;16.72;72.55
41712;BME280;27399;51.516;13.670;2023-05-19T22:22:02;101375.41;;;16.91;71.73
41712;BME280;27399;51.516;13.670;2023-05-19T22:24:28;101368.81;;;16.61;72.42
41712;BME280;27399;51.516;13.670;2023-05-19T22:26:53;101376.41;;;16.85;72.18
41712;BME280;27399;51.516;13.670;2023-05-19T22:29:19;101364.78;;;16.83;72.87
41712;BME280;27399;51.516;13.670;2023-05-19T22:31:45;101373.06;;;16.72;72.37
41712;BME280;27399;51.516;13.670;2023-05-19T22:34:10;101371.16;;;16.79;72.76
41712;BME280;27399;51.516;13.670;2023-05-19T22:36:37;101370.00;;;16.94;71.51
41712;BME280;27399;51.516;13.670;2023-05-19T22:39:03;101365.19;;;16.63;72.72
41712;BME280;27399;51.516;13.670;2023-05-19T22:41:28;101354.19;;;16.74;73.05
41712;BME280;27399;51.516;13.670;2023-05-19T22:43:54;101365.22;;;16.60;73.51
41712;BME280;27399;51.516;13.670;2023-05-19T22:46:20;101355.09;;;16.73;72.86
41712;BME280;27399;51.516;13.670;2023-05-19T22:48:45;101362.50;;;16.62;73.42
41712;BME280;27399;51.516;13.670;2023-05-19T22:51:11;101358.69;;;16.72;72.67
41712;BME280;27399;51.516;13.670;2023-05-19T22:53:36;101364.00;;;16.78;72.88
41712;BME280;27399;51.516;13.670;2023-05-19T22:56:02;101362.06;;;16.83;72.56
41712;BME280;27399;51.516;13.670;2023-05-19T22:58:28;101361.38;;;16.73;72.56
41712;BME280;27399;51.516;13.670;2023-05-19T23:00:53;101366.50;;;16.87;72.31
41712;BME280;27399;51.516;13.670;2023-05-19T23:03:19;101369.25;;;16.84;72.54
41712;BME280;27399;51.516;13.670;2023-05-19T23:05:44;101364.09;;;16.72;72.98
41712;BME280;27399;51.516;13.670;2023-05-19T23:08:10;101353.41;;;16.67;72.86
41712;BME280;27399;51.516;13.670;2023-05-19T23:10:36;101360.75;;;16.61;73.43
41712;BME280;27399;51.516;13.670;2023-05-19T23:13:02;101369.94;;;16.47;73.54
41712;BME280;27399;51.516;13.670;2023-05-19T23:15:28;101365.19;;;16.63;73.02
41712;BME280;27399;51.516;13.670;2023-05-19T23:17:53;101362.91;;;16.40;73.81
41712;BME280;27399;51.516;13.670;2023-05-19T23:20:19;101364.34;;;16.60;73.77
41712;BME280;27399;51.516;13.670;2023-05-19T23:22:44;101359.78;;;16.63;73.69
41712;BME280;27399;51.516;13.670;2023-05-19T23:25:10;101357.75;;;16.76;72.74
41712;BME280;27399;51.516;13.670;2023-05-19T23:27:36;101358.28;;;16.47;74.16
41712;BME280;27399;51.516;13.670;2023-05-19T23:30:02;101354.22;;;16.72;72.95
41712;BME280;27399;51.516;13.670;2023-05-19T23:32:27;101362.56;;;16.58;73.60
41712;BME280;27399;51.516;13.670;2023-05-19T23:34:53;101365.22;;;16.60;73.63
41712;BME280;27399;51.516;13.670;2023-05-19T23:37:19;101367.22;;;16.50;73.89
41712;BME280;27399;51.516;13.670;2023-05-19T23:39:44;101358.19;;;16.53;73.89
41712;BME280;27399;51.516;13.670;2023-05-19T23:42:10;101360.06;;;16.48;73.80
41712;BME280;27399;51.516;13.670;2023-05-19T23:44:37;101362.50;;;16.62;73.68
41712;BME280;27399;51.516;13.670;2023-05-19T23:47:03;101366.22;;;16.54;74.29
41712;BME280;27399;51.516;13.670;2023-05-19T23:49:28;101355.28;;;16.64;73.79
41712;BME280;27399;51.516;13.670;2023-05-19T23:51:54;101353.06;;;16.39;74.08
41712;BME280;27399;51.516;13.670;2023-05-19T23:54:20;101355.78;;;16.36;74.89
41712;BME280;27399;51.516;13.670;2023-05-19T23:56:45;101362.69;;;16.51;74.21
41712;BME280;27399;51.516;13.670;2023-05-19T23:59:11;101358.22;;;16.50;74.33
